Time;durP1;ratioP1;P1;durP2;ratioP2;P2;SDS_P1;SDS_P2;PMS_P1;PMS_P2;Temp;Humidity;BMP_temperature;BMP_pressure;BME280_temperature;BME280_humidity;BME280_pressure;Samples;Min_cycle;Max_cycle;Signal;HPM_P1;HPM_P2
2022/05/20 00:02:19;;;;;;;0.00;0.00;;;16.70;99.90;;;;;;5064985;28;20147;-81
2022/05/20 00:04:45;;;;;;;0.00;0.00;;;17.00;99.90;;;;;;5072702;28;20021;-81
2022/05/20 00:07:11;;;;;;;0.60;0.60;;;16.70;99.90;;;;;;5065198;28;20467;-81
2022/05/20 00:09:38;;;;;;;0.00;0.00;;;17.10;99.90;;;;;;5072647;28;20021;-79
2022/05/20 00:12:05;;;;;;;0.00;0.00;;;17.50;99.90;;;;;;5073047;28;20078;-81
2022/05/20 00:14:33;;;;;;;0.00;0.00;;;17.60;99.90;;;;;;5072544;28;20028;-82
2022/05/20 00:17:05;;;;;;;0.00;0.00;;;17.80;99.90;;;;;;5072509;28;20040;-82
2022/05/20 00:19:33;;;;;;;0.00;0.00;;;17.90;99.90;;;;;;5068977;28;20021;-78
2022/05/20 00:21:59;;;;;;;0.00;0.00;;;18.00;99.90;;;;;;5054723;28;20021;-84
2022/05/20 00:25:45;;;;;;;0.00;0.00;;;18.10;99.90;;;;;;5073056;28;20024;-79
2022/05/20 00:27:20;;;;;;;0.00;0.00;;;18.30;99.90;;;;;;5062956;28;20028;-81
2022/05/20 00:29:46;;;;;;;0.08;0.08;;;18.30;99.90;;;;;;5072141;28;20111;-81
2022/05/20 00:32:12;;;;;;;0.00;0.00;;;18.20;99.90;;;;;;5068573;28;20064;-79
2022/05/20 00:34:39;;;;;;;0.00;0.00;;;18.50;99.90;;;;;;5072182;28;20017;-81
2022/05/20 00:37:05;;;;;;;0.00;0.00;;;19.00;99.90;;;;;;5078742;28;20083;-80
2022/05/20 00:39:31;;;;;;;0.00;0.00;;;19.80;99.90;;;;;;5075573;28;20084;-80
2022/05/20 00:41:57;;;;;;;0.00;0.00;;;20.40;99.90;;;;;;5082945;28;20021;-80
2022/05/20 00:44:23;;;;;;;0.00;0.00;;;21.00;99.90;;;;;;5075908;28;20028;-82
2022/05/20 00:46:49;;;;;;;0.00;0.00;;;21.60;99.90;;;;;;5075428;28;20035;-80
2022/05/20 00:49:16;;;;;;;0.00;0.00;;;22.20;95.90;;;;;;5055344;28;20390;-81
2022/05/20 00:51:50;;;;;;;0.00;0.00;;;22.90;85.90;;;;;;5073333;28;20078;-81
2022/05/20 00:54:24;;;;;;;0.00;0.00;;;23.40;88.00;;;;;;5041458;28;20484;-78
2022/05/20 00:57:00;;;;;;;0.00;0.00;;;23.80;89.80;;;;;;5064126;28;20044;-79
2022/05/20 00:59:29;;;;;;;0.00;0.00;;;24.10;86.50;;;;;;5056008;28;20192;-78
2022/05/20 01:02:00;;;;;;;0.00;0.00;;;24.80;80.80;;;;;;5070257;28;20048;-78
2022/05/20 01:04:27;;;;;;;0.00;0.00;;;25.30;77.20;;;;;;5056676;28;20021;-79
2022/05/20 01:06:54;;;;;;;0.10;0.10;;;25.30;75.50;;;;;;5071506;28;20031;-80
2022/05/20 01:09:20;;;;;;;0.40;0.40;;;25.70;71.20;;;;;;5068608;28;20021;-78
2022/05/20 01:11:46;;;;;;;0.25;0.25;;;25.80;69.50;;;;;;5070334;28;20024;-80
2022/05/20 01:14:20;;;;;;;0.00;0.00;;;26.10;63.90;;;;;;5071877;28;20025;-79
2022/05/20 01:16:47;;;;;;;23.15;21.30;;;26.10;61.70;;;;;;5064312;28;20020;-80
2022/05/20 01:19:44;;;;;;;0.00;0.00;;;25.90;63.10;;;;;;5070945;28;20024;-81
2022/05/20 01:22:12;;;;;;;0.00;0.00;;;25.10;65.80;;;;;;5053694;28;20112;-81
2022/05/20 01:24:39;;;;;;;0.95;0.95;;;25.20;64.50;;;;;;5058808;28;20517;-79
2022/05/20 01:27:05;;;;;;;0.20;0.20;;;25.00;65.70;;;;;;5064665;28;20380;-80
2022/05/20 01:29:33;;;;;;;0.00;0.00;;;24.90;65.40;;;;;;5056207;28;20053;-80
2022/05/20 01:31:59;;;;;;;0.00;0.00;;;25.00;61.00;;;;;;5071153;28;20025;-80
2022/05/20 01:34:25;;;;;;;0.00;0.00;;;25.20;60.70;;;;;;5064913;28;20078;-79
2022/05/20 01:36:51;;;;;;;0.00;0.00;;;25.30;58.10;;;;;;5056895;28;20025;-82
2022/05/20 01:39:17;;;;;;;0.00;0.00;;;25.30;56.50;;;;;;5054142;28;20029;-82
2022/05/20 01:41:55;;;;;;;0.00;0.00;;;25.50;59.90;;;;;;5072842;28;20475;-83
2022/05/20 01:44:34;;;;;;;0.10;0.10;;;25.30;59.10;;;;;;5063865;28;20124;-82
2022/05/20 01:47:09;;;;;;;0.00;0.00;;;25.30;59.30;;;;;;5049498;28;20075;-82
2022/05/20 01:50:00;;;;;;;0.00;0.00;;;25.10;59.60;;;;;;5052314;28;20025;-82
2022/05/20 01:52:54;;;;;;;0.00;0.00;;;25.50;57.80;;;;;;5034305;28;20033;-82
2022/05/20 01:55:38;;;;;;;0.00;0.00;;;26.00;55.60;;;;;;5070014;28;20096;-83
2022/05/20 01:58:04;;;;;;;1.10;1.05;;;26.20;55.90;;;;;;5052690;28;20123;-82
2022/05/20 02:00:32;;;;;;;0.00;0.00;;;26.90;53.70;;;;;;5052423;28;20041;-82
2022/05/20 02:03:20;;;;;;;0.10;0.10;;;27.50;51.90;;;;;;5064344;28;20028;-84
2022/05/20 02:06:09;;;;;;;0.38;0.38;;;27.60;51.10;;;;;;5063761;28;20020;-83
2022/05/20 02:08:49;;;;;;;0.00;0.00;;;27.90;50.90;;;;;;5066028;28;20033;-84
2022/05/20 02:11:45;;;;;;;0.00;0.00;;;28.10;50.40;;;;;;5053024;28;20410;-82
2022/05/20 02:14:19;;;;;;;0.00;0.00;;;28.20;50.10;;;;;;5053719;28;20040;-82
2022/05/20 02:16:55;;;;;;;0.00;0.00;;;29.10;49.40;;;;;;5071621;28;20102;-83
2022/05/20 02:19:33;;;;;;;0.00;0.00;;;29.30;49.00;;;;;;5063560;28;20439;-83
2022/05/20 02:22:02;;;;;;;0.30;0.30;;;30.20;47.30;;;;;;5048488;28;20458;-83
2022/05/20 02:24:32;;;;;;;0.65;0.65;;;30.70;46.40;;;;;;5068046;28;20020;-82
2022/05/20 02:27:06;;;;;;;0.00;0.00;;;29.00;48.70;;;;;;5067618;28;20056;-82
2022/05/20 02:30:13;;;;;;;0.00;0.00;;;28.30;51.50;;;;;;5085474;28;20079;-83
2022/05/20 02:32:51;;;;;;;0.20;0.20;;;30.00;48.60;;;;;;5034721;28;20033;-82
2022/05/20 02:35:20;;;;;;;0.05;0.05;;;29.30;49.20;;;;;;5064220;28;20022;-82
2022/05/20 02:37:47;;;;;;;0.08;0.08;;;28.90;49.90;;;;;;5048229;28;20119;-82
2022/05/20 02:40:21;;;;;;;0.00;0.00;;;28.10;51.10;;;;;;5063037;28;20534;-83
2022/05/20 02:42:47;;;;;;;0.00;0.00;;;28.60;50.80;;;;;;5064399;28;20450;-84
2022/05/20 02:45:15;;;;;;;0.00;0.00;;;29.80;48.00;;;;;;5064413;28;20020;-83
2022/05/20 02:47:41;;;;;;;0.15;0.15;;;29.30;48.20;;;;;;5048058;28;20043;-83
2022/05/20 02:50:20;;;;;;;;;;;;;;;;;;;;;
2022/05/20 02:52:53;;;;;;;3.20;1.95;;;28.00;49.40;;;;;;5063448;28;20035;-82
2022/05/20 02:55:19;;;;;;;0.65;0.65;;;27.50;50.70;;;;;;5064929;28;20036;-83
2022/05/20 02:58:05;;;;;;;2.58;2.45;;;28.00;51.00;;;;;;5054426;28;20028;-83
2022/05/20 03:06:01;;;;;;;0.00;0.00;;;27.20;55.80;;;;;;5053785;28;20085;-83
2022/05/20 03:08:36;;;;;;;0.85;0.82;;;27.30;55.90;;;;;;5067624;28;20078;-83
2022/05/20 03:11:04;;;;;;;0.35;0.35;;;28.30;55.70;;;;;;5048729;28;20024;-83
2022/05/20 03:13:30;;;;;;;3.45;2.40;;;28.90;54.00;;;;;;5083522;28;20040;-83
2022/05/20 03:15:56;;;;;;;0.00;0.00;;;28.20;53.10;;;;;;5064228;28;20398;-83
2022/05/20 03:18:25;;;;;;;0.45;0.40;;;27.50;55.20;;;;;;5060961;28;20035;-82
2022/05/20 03:20:51;;;;;;;4.15;1.38;;;27.00;56.40;;;;;;5062865;28;20055;-83
2022/05/20 03:23:21;;;;;;;0.50;0.50;;;26.50;57.40;;;;;;5067577;28;20108;-82
2022/05/20 03:25:47;;;;;;;0.10;0.05;;;27.80;55.60;;;;;;5041673;28;20033;-84
2022/05/20 03:28:17;;;;;;;2.67;1.83;;;28.20;54.00;;;;;;5064449;28;20046;-82
2022/05/20 03:30:43;;;;;;;0.20;0.20;;;28.70;52.90;;;;;;5071820;28;20024;-83
2022/05/20 03:33:30;;;;;;;3.55;1.00;;;29.30;52.40;;;;;;5052294;28;20607;-84
2022/05/20 03:36:15;;;;;;;0.00;0.00;;;29.60;51.50;;;;;;5075844;28;20005;-83
2022/05/20 03:38:44;;;;;;;2.20;0.43;;;28.90;51.80;;;;;;5063994;28;20860;-82
2022/05/20 03:59:37;;;;;;;;;;;;;;;;;;;;;
2022/05/20 04:02:35;;;;;;;3.55;2.15;;;25.20;57.10;;;;;;4873845;29;20590;-83
2022/05/20 04:13:02;;;;;;;0.00;0.00;;;25.80;55.10;;;;;;4849836;29;20553;-82
2022/05/20 04:20:57;;;;;;;;;;;;;;;;;;;;;
2022/05/20 04:32:01;;;;;;;0.00;0.00;;;25.40;53.40;;;;;;4695893;30;20165;-83
2022/05/20 04:54:51;;;;;;;2.42;0.75;;;25.20;51.00;;;;;;5058887;28;20553;-82
2022/05/20 04:57:42;;;;;;;0.10;0.10;;;25.10;50.30;;;;;;5065665;28;20151;-81
2022/05/20 05:00:14;;;;;;;0.00;0.00;;;25.40;50.50;;;;;;5046718;28;20384;-81
2022/05/20 05:03:08;;;;;;;;;;;;;;;;;;;;;
2022/05/20 05:05:43;;;;;;;0.00;0.00;;;26.20;50.90;;;;;;5061690;28;20036;-81
2022/05/20 05:08:23;;;;;;;2.95;1.50;;;26.50;50.50;;;;;;5049077;28;20048;-81
2022/05/20 05:10:54;;;;;;;0.28;0.28;;;26.50;48.90;;;;;;5054145;28;20040;-81
2022/05/20 05:13:33;;;;;;;0.05;0.05;;;26.10;49.60;;;;;;5071414;28;20048;-82
2022/05/20 05:16:25;;;;;;;0.20;0.20;;;25.90;48.80;;;;;;5047822;28;20083;-82
2022/05/20 05:19:04;;;;;;;0.00;0.00;;;25.70;48.80;;;;;;5067854;28;20046;-81
2022/05/20 05:21:36;;;;;;;0.00;0.00;;;25.80;48.20;;;;;;5066061;28;20111;-81
2022/05/20 05:25:12;;;;;;;;;;;;;;;;;;;;;
2022/05/20 05:31:41;;;;;;;0.10;0.08;;;26.20;49.30;;;;;;5055035;28;20033;-80
2022/05/20 05:34:10;;;;;;;0.10;0.10;;;26.20;46.10;;;;;;5044232;28;20435;-81
2022/05/20 05:36:37;;;;;;;0.00;0.00;;;25.90;49.40;;;;;;5049145;28;20074;-81
2022/05/20 05:39:39;;;;;;;0.10;0.10;;;26.00;48.20;;;;;;5065917;28;20046;-81
2022/05/20 05:42:18;;;;;;;0.55;0.45;;;26.30;47.70;;;;;;4963454;28;20045;-80
2022/05/20 05:45:20;;;;;;;2.38;0.47;;;25.80;50.20;;;;;;4961560;28;20042;-80
2022/05/20 05:54:35;;;;;;;2.80;0.93;;;26.60;46.90;;;;;;5030845;28;20140;-81
2022/05/20 05:59:59;;;;;;;0.15;0.15;;;26.10;48.10;;;;;;5037647;28;20052;-82
2022/05/20 06:02:26;;;;;;;1.02;0.30;;;26.40;47.90;;;;;;5044441;28;20064;-81
2022/05/20 06:05:12;;;;;;;0.00;0.00;;;26.40;48.50;;;;;;5062233;28;20041;-81
2022/05/20 06:08:19;;;;;;;0.10;0.10;;;26.60;48.00;;;;;;5032174;28;20074;-83
2022/05/20 06:11:16;;;;;;;3.38;1.15;;;26.50;47.00;;;;;;5028381;28;20033;-81
2022/05/20 06:14:26;;;;;;;0.00;0.00;;;26.40;48.50;;;;;;5049655;28;20132;-82
2022/05/20 06:17:18;;;;;;;1.33;1.00;;;26.10;49.10;;;;;;5004653;28;20133;-82
2022/05/20 06:19:47;;;;;;;0.60;0.60;;;25.70;49.20;;;;;;5032611;28;20034;-83
2022/05/20 06:33:57;;;;;;;0.55;0.45;;;26.20;49.40;;;;;;5020490;28;20428;-82
2022/05/20 06:47:47;;;;;;;0.08;0.00;;;26.40;50.00;;;;;;4986109;28;20034;-81
2022/05/20 06:50:17;;;;;;;0.00;0.00;;;26.50;48.80;;;;;;4994410;28;20452;-82
2022/05/20 06:53:03;;;;;;;0.00;0.00;;;26.80;49.00;;;;;;5035243;28;20052;-81
2022/05/20 06:55:41;;;;;;;0.17;0.15;;;26.90;50.20;;;;;;5069000;28;20041;-82
2022/05/20 06:58:36;;;;;;;9.98;5.65;;;27.30;50.00;;;;;;5066094;28;20127;-82
2022/05/20 07:01:13;;;;;;;1.13;1.02;;;27.00;48.00;;;;;;5059773;28;20040;-81
2022/05/20 07:04:01;;;;;;;0.00;0.00;;;26.90;50.00;;;;;;5078278;28;20533;-82
2022/05/20 07:06:30;;;;;;;0.95;0.38;;;26.30;49.20;;;;;;5060876;28;20110;-82
2022/05/20 07:09:05;;;;;;;0.00;0.00;;;26.30;49.20;;;;;;5074132;28;20032;-82
2022/05/20 07:11:46;;;;;;;0.10;0.00;;;26.20;50.30;;;;;;5047080;28;20064;-82
2022/05/20 07:18:21;;;;;;;3.63;0.93;;;26.70;49.50;;;;;;5056888;28;20040;-80
2022/05/20 07:24:28;;;;;;;0.00;0.00;;;26.80;49.00;;;;;;5025084;28;20075;-82
2022/05/20 07:27:18;;;;;;;0.08;0.08;;;27.00;49.30;;;;;;5077681;28;20033;-81
2022/05/20 07:30:25;;;;;;;0.75;0.20;;;27.10;48.80;;;;;;5050633;28;20043;-81
2022/05/20 07:32:54;;;;;;;1.88;0.57;;;26.90;48.80;;;;;;5064668;28;20040;-82
2022/05/20 07:35:25;;;;;;;0.00;0.00;;;27.10;48.90;;;;;;5048746;28;20036;-82
2022/05/20 07:37:58;;;;;;;0.00;0.00;;;26.90;47.90;;;;;;5069936;28;20036;-82
2022/05/20 07:40:25;;;;;;;0.08;0.08;;;27.00;46.90;;;;;;5061719;28;20064;-81
2022/05/20 07:42:51;;;;;;;0.00;0.00;;;27.30;47.40;;;;;;5066782;28;20035;-82
2022/05/20 07:45:20;;;;;;;0.00;0.00;;;27.00;49.10;;;;;;5068897;28;20455;-82
2022/05/20 07:58:36;;;;;;;0.20;0.10;;;27.60;47.40;;;;;;5012965;28;20132;-83
2022/05/20 08:05:08;;;;;;;0.20;0.10;;;28.60;45.90;;;;;;4984828;28;20256;-81
2022/05/20 08:07:41;;;;;;;1.20;1.20;;;29.10;44.80;;;;;;4981188;28;20038;-82
2022/05/20 08:17:36;;;;;;;2.40;2.30;;;28.60;45.50;;;;;;5007832;28;20042;-81
2022/05/20 08:23:34;;;;;;;0.00;0.00;;;28.50;45.60;;;;;;4949484;28;20460;-80
2022/05/20 08:26:00;;;;;;;0.00;0.00;;;28.90;45.00;;;;;;5049043;28;20032;-81
2022/05/20 08:28:27;;;;;;;0.95;0.95;;;28.80;44.30;;;;;;5042381;28;20047;-81
2022/05/20 08:30:53;;;;;;;0.57;0.57;;;28.80;44.60;;;;;;5067260;28;20032;-81
2022/05/20 08:33:19;;;;;;;0.00;0.00;;;28.70;45.00;;;;;;5065763;28;20040;-80
2022/05/20 08:35:45;;;;;;;0.00;0.00;;;28.70;44.90;;;;;;5051758;28;20372;-81
2022/05/20 08:38:14;;;;;;;0.00;0.00;;;28.80;44.40;;;;;;5051314;28;20048;-81
2022/05/20 08:40:45;;;;;;;0.00;0.00;;;29.10;43.40;;;;;;5069858;28;20028;-81
2022/05/20 08:43:12;;;;;;;15.32;13.68;;;29.40;43.40;;;;;;5062832;28;20071;-80
2022/05/20 08:45:39;;;;;;;0.00;0.00;;;29.40;42.90;;;;;;5067815;28;20324;-81
2022/05/20 08:48:08;;;;;;;0.13;0.13;;;29.70;43.40;;;;;;5044951;28;20487;-81
2022/05/20 08:50:40;;;;;;;0.10;0.10;;;30.10;43.20;;;;;;5064095;28;20400;-82
2022/05/20 08:53:12;;;;;;;0.00;0.00;;;29.60;43.00;;;;;;5043252;28;20527;-81
2022/05/20 08:55:40;;;;;;;0.00;0.00;;;29.50;43.30;;;;;;5064002;28;20503;-80
2022/05/20 08:58:13;;;;;;;0.00;0.00;;;29.70;43.70;;;;;;5065466;28;20036;-81
2022/05/20 09:00:50;;;;;;;;;;;;;;;;;;;;;
2022/05/20 09:03:22;;;;;;;0.00;0.00;;;29.70;45.10;;;;;;5065817;28;20029;-80
2022/05/20 09:06:13;;;;;;;0.00;0.00;;;29.90;45.10;;;;;;5071941;28;20495;-81
2022/05/20 09:09:01;;;;;;;0.00;0.00;;;30.10;45.30;;;;;;5062799;28;20057;-81
2022/05/20 09:11:30;;;;;;;0.00;0.00;;;30.10;45.00;;;;;;5038400;28;20419;-81
2022/05/20 09:17:40;;;;;;;0.25;0.25;;;29.30;46.40;;;;;;5067257;28;20068;-82
2022/05/20 09:20:17;;;;;;;0.00;0.00;;;29.50;45.50;;;;;;5059179;28;20037;-82
2022/05/20 09:23:04;;;;;;;1.48;0.77;;;29.80;45.40;;;;;;5048320;28;20043;-82
2022/05/20 09:25:33;;;;;;;0.00;0.00;;;29.70;45.90;;;;;;5064701;28;20112;-81
2022/05/20 09:28:17;;;;;;;5.97;1.23;;;29.90;45.60;;;;;;5065224;28;20028;-82
2022/05/20 09:30:54;;;;;;;0.10;0.10;;;29.90;45.50;;;;;;5047869;28;20040;-82
2022/05/20 09:33:28;;;;;;;0.52;0.52;;;29.60;46.00;;;;;;5064255;28;20326;-82
2022/05/20 09:36:00;;;;;;;0.00;0.00;;;29.80;45.90;;;;;;5066980;28;20181;-82
2022/05/20 09:38:39;;;;;;;0.00;0.00;;;29.90;45.50;;;;;;5048409;28;20066;-82
2022/05/20 09:41:23;;;;;;;0.00;0.00;;;29.60;45.80;;;;;;5076681;28;20032;-81
2022/05/20 09:43:58;;;;;;;0.00;0.00;;;29.70;46.30;;;;;;5046860;28;21132;-82
2022/05/20 09:47:00;;;;;;;0.00;0.00;;;29.70;46.10;;;;;;5043253;28;20032;-81
2022/05/20 09:49:35;;;;;;;0.00;0.00;;;29.60;46.10;;;;;;5038307;28;20463;-82
2022/05/20 09:52:47;;;;;;;0.03;0.03;;;29.30;47.00;;;;;;5057885;28;20119;-82
2022/05/20 09:55:24;;;;;;;0.00;0.00;;;29.40;46.60;;;;;;5054174;28;20256;-82
2022/05/20 09:57:53;;;;;;;2.20;2.10;;;29.30;47.20;;;;;;5055531;28;20051;-82
2022/05/20 10:00:34;;;;;;;0.20;0.20;;;28.60;47.90;;;;;;5058522;28;20085;-81
2022/05/20 10:03:19;;;;;;;0.00;0.00;;;28.20;49.10;;;;;;5063273;28;20032;-82
2022/05/20 10:06:11;;;;;;;0.00;0.00;;;28.50;48.90;;;;;;5062735;28;20562;-81
2022/05/20 10:08:59;;;;;;;0.22;0.20;;;28.70;47.90;;;;;;5060234;28;20103;-81
2022/05/20 10:11:35;;;;;;;0.13;0.13;;;28.60;47.90;;;;;;5044642;28;20040;-82
2022/05/20 10:14:22;;;;;;;0.08;0.08;;;28.80;48.80;;;;;;5063619;28;20051;-82
2022/05/20 10:17:25;;;;;;;0.00;0.00;;;28.90;48.40;;;;;;5049122;28;20395;-82
2022/05/20 10:20:03;;;;;;;0.00;0.00;;;29.10;48.50;;;;;;5064211;28;20534;-82
2022/05/20 10:22:45;;;;;;;0.47;0.38;;;29.20;48.30;;;;;;5064336;28;20024;-81
2022/05/20 10:25:47;;;;;;;0.00;0.00;;;29.10;47.90;;;;;;5061825;28;20044;-82
2022/05/20 10:34:42;;;;;;;0.00;0.00;;;28.70;49.20;;;;;;5052904;28;20037;-82
2022/05/20 10:37:23;;;;;;;0.00;0.00;;;28.60;49.00;;;;;;5036493;28;20338;-81
2022/05/20 10:40:17;;;;;;;0.00;0.00;;;28.40;49.00;;;;;;5062343;28;20044;-81
2022/05/20 10:43:11;;;;;;;0.00;0.00;;;28.20;49.90;;;;;;5058554;28;20306;-82
2022/05/20 10:48:50;;;;;;;0.00;0.00;;;28.40;49.10;;;;;;5059283;28;20052;-81
2022/05/20 10:52:07;;;;;;;0.00;0.00;;;28.60;48.80;;;;;;5057713;28;20047;-82
2022/05/20 10:54:33;;;;;;;0.03;0.00;;;29.00;48.90;;;;;;5031237;28;20041;-82
2022/05/20 10:57:18;;;;;;;0.00;0.00;;;29.00;47.40;;;;;;5047117;28;20041;-80
2022/05/20 11:00:10;;;;;;;0.00;0.00;;;28.90;48.00;;;;;;5064020;28;20088;-81
2022/05/20 11:03:25;;;;;;;0.03;0.03;;;28.70;48.60;;;;;;5062503;28;20438;-81
2022/05/20 11:06:36;;;;;;;0.00;0.00;;;28.60;49.20;;;;;;5064601;28;20067;-81
2022/05/20 11:09:33;;;;;;;0.20;0.00;;;28.60;48.80;;;;;;5059961;28;20048;-82
2022/05/20 11:12:04;;;;;;;0.00;0.00;;;28.70;48.30;;;;;;5061106;28;20044;-81
2022/05/20 11:14:39;;;;;;;0.20;0.20;;;28.70;48.80;;;;;;5058522;28;20107;-81
2022/05/20 11:17:24;;;;;;;0.75;0.75;;;28.60;48.80;;;;;;5062342;28;20055;-81
2022/05/20 11:20:14;;;;;;;0.00;0.00;;;28.60;48.30;;;;;;5060975;28;20041;-81
2022/05/20 11:23:17;;;;;;;0.10;0.10;;;28.40;48.60;;;;;;5060054;28;20033;-81
2022/05/20 11:26:05;;;;;;;0.03;0.03;;;28.10;48.90;;;;;;5056599;28;20111;-81
2022/05/20 11:29:03;;;;;;;0.55;0.47;;;28.10;49.10;;;;;;5063310;28;20033;-81
2022/05/20 11:31:54;;;;;;;0.00;0.00;;;28.00;49.70;;;;;;5062252;28;20037;-81
2022/05/20 11:34:20;;;;;;;0.10;0.10;;;27.90;49.80;;;;;;5041288;28;20044;-82
2022/05/20 11:36:56;;;;;;;0.00;0.00;;;27.80;50.40;;;;;;5061881;28;20086;-81
2022/05/20 11:39:56;;;;;;;0.00;0.00;;;27.90;50.30;;;;;;5059054;28;20500;-81
2022/05/20 11:42:37;;;;;;;0.10;0.10;;;27.80;50.40;;;;;;5061991;28;20041;-82
2022/05/20 11:45:31;;;;;;;0.00;0.00;;;27.80;50.70;;;;;;5068127;28;20032;-81
2022/05/20 11:48:16;;;;;;;2.03;1.92;;;27.70;50.80;;;;;;5064282;28;20045;-81
2022/05/20 11:51:01;;;;;;;0.00;0.00;;;27.50;51.40;;;;;;5059939;28;20040;-81
2022/05/20 11:53:57;;;;;;;0.35;0.35;;;27.40;51.60;;;;;;5059832;28;20039;-80
2022/05/20 11:56:39;;;;;;;0.00;0.00;;;27.50;51.50;;;;;;5068885;28;20052;-81
2022/05/20 11:59:17;;;;;;;0.00;0.00;;;27.40;51.60;;;;;;5063922;28;20483;-81
2022/05/20 12:01:48;;;;;;;0.00;0.00;;;27.50;51.80;;;;;;5046629;28;20483;-81
2022/05/20 12:04:18;;;;;;;0.00;0.00;;;27.00;52.80;;;;;;5063766;28;20048;-81
2022/05/20 12:06:57;;;;;;;0.00;0.00;;;26.80;53.50;;;;;;5053085;28;20029;-81
2022/05/20 12:09:52;;;;;;;1.13;0.73;;;27.00;53.10;;;;;;5048047;28;20052;-81
2022/05/20 12:12:27;;;;;;;0.55;0.55;;;27.10;52.30;;;;;;5062398;28;20050;-81
2022/05/20 12:15:11;;;;;;;0.40;0.40;;;27.10;52.50;;;;;;5062788;28;20032;-80
2022/05/20 12:17:44;;;;;;;0.00;0.00;;;27.10;52.80;;;;;;5067380;28;20040;-81
2022/05/20 12:26:24;;;;;;;0.85;0.45;;;26.90;53.10;;;;;;5071090;28;20043;-82
2022/05/20 12:28:50;;;;;;;0.00;0.00;;;27.00;53.50;;;;;;5045738;28;20131;-80
2022/05/20 12:31:39;;;;;;;0.80;0.80;;;26.90;53.90;;;;;;5065143;28;20518;-81
2022/05/20 12:34:30;;;;;;;0.40;0.40;;;26.90;53.80;;;;;;5064171;28;20753;-81
2022/05/20 12:36:58;;;;;;;0.00;0.00;;;26.80;54.20;;;;;;5043523;28;20093;-81
2022/05/20 12:39:48;;;;;;;0.00;0.00;;;26.80;54.40;;;;;;5064958;28;20036;-80
2022/05/20 12:42:44;;;;;;;0.00;0.00;;;26.80;54.20;;;;;;5066148;28;20045;-80
2022/05/20 12:45:14;;;;;;;0.00;0.00;;;26.60;54.50;;;;;;5067609;28;20496;-81
2022/05/20 12:47:40;;;;;;;0.63;0.15;;;26.70;54.20;;;;;;5069995;28;20052;-81
2022/05/20 12:50:27;;;;;;;0.00;0.00;;;26.70;53.70;;;;;;5070189;28;20032;-81
2022/05/20 12:52:59;;;;;;;0.00;0.00;;;26.50;54.00;;;;;;5050135;28;20055;-81
2022/05/20 12:55:28;;;;;;;0.20;0.20;;;26.60;53.80;;;;;;5072994;28;20044;-81
2022/05/20 12:57:57;;;;;;;0.00;0.00;;;26.50;54.30;;;;;;5069493;28;20033;-81
2022/05/20 13:00:53;;;;;;;11.50;1.25;;;26.40;54.30;;;;;;5071555;28;20032;-81
2022/05/20 13:03:45;;;;;;;0.38;0.38;;;26.50;53.50;;;;;;5053601;28;20060;-82
2022/05/20 13:06:26;;;;;;;0.00;0.00;;;26.50;53.90;;;;;;5048610;28;20068;-81
2022/05/20 13:09:02;;;;;;;0.00;0.00;;;26.30;54.10;;;;;;5067036;28;20033;-81
2022/05/20 13:11:43;;;;;;;42.65;1.55;;;26.40;54.20;;;;;;5053470;28;20043;-82
2022/05/20 13:14:16;;;;;;;1.00;0.93;;;26.30;54.50;;;;;;5069601;28;20048;-81
2022/05/20 13:16:54;;;;;;;0.00;0.00;;;26.20;54.30;;;;;;5045512;28;20043;-82
2022/05/20 13:19:37;;;;;;;0.00;0.00;;;26.20;54.70;;;;;;5069683;28;20398;-82
2022/05/20 13:22:06;;;;;;;0.00;0.00;;;26.20;54.60;;;;;;5048012;28;20043;-81
2022/05/20 13:24:39;;;;;;;22.05;19.85;;;26.20;54.50;;;;;;5067581;28;20114;-81
2022/05/20 13:27:16;;;;;;;2.15;2.05;;;26.00;55.20;;;;;;5070773;28;20036;-81
2022/05/20 13:29:45;;;;;;;0.90;0.88;;;26.10;55.60;;;;;;5070002;28;20048;-81
2022/05/20 13:32:20;;;;;;;0.00;0.00;;;26.10;55.90;;;;;;5070163;28;20025;-81
2022/05/20 13:34:51;;;;;;;0.17;0.17;;;26.10;56.40;;;;;;5068482;28;20032;-81
2022/05/20 13:37:39;;;;;;;0.00;0.00;;;26.00;57.70;;;;;;5047010;28;20124;-81
2022/05/20 13:40:52;;;;;;;;;;;;;;;;;;;;;
2022/05/20 13:43:34;;;;;;;1.85;1.75;;;25.80;60.20;;;;;;5069925;28;20037;-81
2022/05/20 13:51:52;;;;;;;5.30;4.85;;;25.60;61.70;;;;;;5065391;28;20039;-81
2022/05/20 13:54:43;;;;;;;1.30;0.65;;;25.60;61.60;;;;;;5043478;28;20036;-80
2022/05/20 13:57:34;;;;;;;0.30;0.30;;;25.50;62.30;;;;;;5064887;28;20179;-80
2022/05/20 14:00:08;;;;;;;0.00;0.00;;;25.40;63.00;;;;;;5063853;28;20040;-81
2022/05/20 14:02:39;;;;;;;1.90;1.80;;;25.30;64.10;;;;;;5058366;28;20025;-81
2022/05/20 14:05:19;;;;;;;0.00;0.00;;;25.30;64.50;;;;;;5063369;28;20045;-81
2022/05/20 14:07:52;;;;;;;10.90;10.15;;;25.20;64.30;;;;;;5066616;28;20253;-81
2022/05/20 14:10:29;;;;;;;0.00;0.00;;;25.20;64.10;;;;;;5085218;28;20097;-80
2022/05/20 14:13:09;;;;;;;0.28;0.28;;;25.30;64.40;;;;;;5070334;28;20482;-81
2022/05/20 14:16:07;;;;;;;0.00;0.00;;;25.10;65.30;;;;;;5069124;28;20127;-80
2022/05/20 14:18:39;;;;;;;5.78;0.93;;;25.00;66.20;;;;;;5068143;28;20614;-80
2022/05/20 14:21:08;;;;;;;0.00;0.00;;;25.10;65.90;;;;;;5063863;28;20124;-81
2022/05/20 14:23:59;;;;;;;0.50;0.50;;;24.90;66.80;;;;;;5037440;28;20115;-81
2022/05/20 14:26:29;;;;;;;0.47;0.47;;;24.40;69.90;;;;;;5050518;28;20052;-81
2022/05/20 14:28:59;;;;;;;0.00;0.00;;;24.20;73.30;;;;;;5063767;28;20112;-81
2022/05/20 14:31:50;;;;;;;0.00;0.00;;;24.30;71.10;;;;;;5059562;28;20114;-81
2022/05/20 14:34:30;;;;;;;0.45;0.45;;;24.00;73.70;;;;;;5067317;28;20426;-81
2022/05/20 14:37:01;;;;;;;2.72;0.93;;;24.30;67.80;;;;;;5061411;28;20052;-81
2022/05/20 14:39:32;;;;;;;0.00;0.00;;;24.50;61.40;;;;;;5062533;28;20057;-81
2022/05/20 14:42:06;;;;;;;0.00;0.00;;;24.40;59.80;;;;;;5061449;28;20119;-81
2022/05/20 14:44:34;;;;;;;0.10;0.10;;;24.40;57.20;;;;;;5067492;28;20111;-80
2022/05/20 14:47:16;;;;;;;1.15;0.15;;;24.40;63.70;;;;;;5070613;28;20124;-81
2022/05/20 14:49:57;;;;;;;0.00;0.00;;;23.90;68.60;;;;;;5068945;28;20132;-80
2022/05/20 14:52:32;;;;;;;0.00;0.00;;;23.30;87.90;;;;;;5050137;28;20101;-81
2022/05/20 14:55:01;;;;;;;0.00;0.00;;;22.60;99.90;;;;;;5069053;28;20048;-82
2022/05/20 14:57:31;;;;;;;0.35;0.35;;;22.50;99.90;;;;;;5072368;28;20123;-81
2022/05/20 15:00:20;;;;;;;2.53;0.40;;;22.20;99.90;;;;;;5058311;28;20868;-81
2022/05/20 15:02:47;;;;;;;5.18;2.75;;;22.00;99.90;;;;;;5068811;28;20036;-80
2022/05/20 15:05:13;;;;;;;1.27;0.30;;;21.70;99.90;;;;;;5069596;28;20184;-81
2022/05/20 15:07:41;;;;;;;0.00;0.00;;;21.60;99.90;;;;;;5069351;28;20175;-80
2022/05/20 15:10:17;;;;;;;0.00;0.00;;;21.20;99.90;;;;;;5050037;28;20033;-80
2022/05/20 15:12:44;;;;;;;0.00;0.00;;;21.10;99.90;;;;;;5066874;28;20452;-80
2022/05/20 15:15:11;;;;;;;0.00;0.00;;;21.00;99.90;;;;;;5063822;28;20481;-80
2022/05/20 15:17:59;;;;;;;0.00;0.00;;;21.00;99.90;;;;;;5066158;28;20458;-81
2022/05/20 15:20:28;;;;;;;0.00;0.00;;;21.10;99.90;;;;;;5052355;28;20427;-80
2022/05/20 15:22:55;;;;;;;0.45;0.45;;;21.10;99.90;;;;;;5054168;28;20037;-81
2022/05/20 15:25:28;;;;;;;0.00;0.00;;;21.00;99.90;;;;;;5069518;28;20540;-81
2022/05/20 15:27:57;;;;;;;0.38;0.38;;;21.10;99.90;;;;;;5058545;28;20500;-80
2022/05/20 15:30:24;;;;;;;0.00;0.00;;;21.20;99.90;;;;;;5079188;28;20044;-80
2022/05/20 15:35:37;;;;;;;0.00;0.00;;;21.40;99.90;;;;;;5077515;28;20437;-80
2022/05/20 15:38:08;;;;;;;0.00;0.00;;;21.50;99.90;;;;;;5080123;28;20040;-81
2022/05/20 15:40:57;;;;;;;0.10;0.10;;;21.30;99.90;;;;;;5076109;28;20455;-81
2022/05/20 15:43:24;;;;;;;1.45;1.45;;;21.40;99.90;;;;;;5069943;28;20093;-80
2022/05/20 15:46:35;;;;;;;0.00;0.00;;;21.30;99.90;;;;;;5071450;28;20032;-80
2022/05/20 15:49:12;;;;;;;0.00;0.00;;;21.20;99.90;;;;;;5078312;28;20114;-80
2022/05/20 15:51:38;;;;;;;0.00;0.00;;;21.40;99.90;;;;;;5060094;28;20032;-80
2022/05/20 15:54:25;;;;;;;0.00;0.00;;;21.40;99.90;;;;;;5075714;28;20037;-80
2022/05/20 15:57:05;;;;;;;0.00;0.00;;;21.40;99.90;;;;;;5081545;28;20040;-81
2022/05/20 15:59:47;;;;;;;;;;;;;;;;;;;;;
2022/05/20 16:02:16;;;;;;;0.00;0.00;;;21.50;99.90;;;;;;5072871;28;20029;-80
2022/05/20 16:05:20;;;;;;;0.00;0.00;;;21.60;99.90;;;;;;5075364;28;20028;-80
2022/05/20 16:08:01;;;;;;;0.00;0.00;;;21.80;98.50;;;;;;5079818;28;20100;-81
2022/05/20 16:10:31;;;;;;;0.00;0.00;;;21.90;96.80;;;;;;5074340;28;20373;-80
2022/05/20 16:12:57;;;;;;;0.00;0.00;;;22.00;93.70;;;;;;5062257;28;20060;-81
2022/05/20 16:15:23;;;;;;;0.00;0.00;;;22.00;93.30;;;;;;5049626;28;20035;-80
2022/05/20 16:17:50;;;;;;;0.00;0.00;;;22.00;93.00;;;;;;5065901;28;20029;-80
2022/05/20 16:20:17;;;;;;;0.00;0.00;;;22.00;92.30;;;;;;5064792;28;20031;-82
2022/05/20 16:22:46;;;;;;;0.00;0.00;;;21.90;91.00;;;;;;5077523;28;20471;-81
2022/05/20 16:49:03;;;;;;;0.00;0.00;;;22.20;85.30;;;;;;5098658;27;20863;-73
2022/05/20 16:51:32;;;;;;;0.00;0.00;;;21.90;90.70;;;;;;5082356;28;20036;-73
2022/05/20 16:54:01;;;;;;;0.00;0.00;;;21.90;90.50;;;;;;5082636;28;20024;-73
2022/05/20 17:01:58;;;;;;;0.00;0.00;;;21.90;91.20;;;;;;5081665;28;20229;-73